Time;durP1;ratioP1;P1;durP2;ratioP2;P2;SDS_P1;SDS_P2;PMS_P1;PMS_P2;Temp;Humidity;BMP_temperature;BMP_pressure;BME280_temperature;BME280_humidity;BME280_pressure;Samples;Min_cycle;Max_cycle;Signal;HPM_P1;HPM_P2
2023/04/25 00:01:05;;;;;;;0.65;0.57;;;11.40;95.20;;;;;;5051830;28;20598;-72
2023/04/25 00:03:32;;;;;;;0.40;0.40;;;11.40;94.90;;;;;;5048478;28;20172;-72
2023/04/25 00:06:02;;;;;;;0.75;0.40;;;11.30;95.50;;;;;;5051114;28;20207;-72
2023/04/25 00:08:30;;;;;;;0.40;0.40;;;11.40;96.00;;;;;;5052392;28;20290;-72
2023/04/25 00:10:56;;;;;;;0.40;0.40;;;11.50;96.90;;;;;;5056093;28;20190;-72
2023/04/25 00:13:22;;;;;;;0.47;0.47;;;11.50;97.10;;;;;;5049445;28;20178;-72
2023/04/25 00:15:48;;;;;;;0.40;0.40;;;11.60;97.60;;;;;;5052011;28;20262;-72
2023/04/25 00:18:14;;;;;;;2.70;0.30;;;11.60;97.90;;;;;;5055491;28;20656;-72
2023/04/25 00:20:40;;;;;;;0.40;0.40;;;11.70;97.80;;;;;;5050402;28;20278;-72
2023/04/25 00:23:06;;;;;;;0.45;0.45;;;11.70;97.60;;;;;;5047826;28;20263;-72
2023/04/25 00:25:31;;;;;;;0.30;0.30;;;11.60;97.10;;;;;;5048408;28;20233;-72
2023/04/25 00:27:57;;;;;;;0.30;0.30;;;11.70;96.50;;;;;;5051576;28;20774;-72
2023/04/25 00:30:23;;;;;;;1.45;0.70;;;11.70;96.60;;;;;;5053324;28;20172;-72
2023/04/25 00:32:48;;;;;;;0.50;0.50;;;11.70;96.80;;;;;;5056201;28;20179;-72
2023/04/25 00:35:14;;;;;;;0.32;0.32;;;11.70;97.20;;;;;;5050624;28;20282;-72
2023/04/25 00:37:40;;;;;;;2.88;0.47;;;11.70;97.50;;;;;;5052469;28;20180;-73
2023/04/25 00:40:07;;;;;;;0.50;0.50;;;11.70;98.10;;;;;;5058895;28;20272;-72
2023/04/25 00:42:32;;;;;;;0.45;0.45;;;11.70;98.00;;;;;;5050520;28;20198;-72
2023/04/25 00:44:59;;;;;;;0.90;0.50;;;11.70;98.20;;;;;;5053502;28;20187;-72
2023/04/25 00:47:25;;;;;;;0.60;0.60;;;11.70;98.50;;;;;;5049171;28;20211;-72
2023/04/25 00:49:53;;;;;;;0.65;0.65;;;11.60;98.50;;;;;;5053845;28;20215;-71
2023/04/25 00:52:19;;;;;;;0.52;0.52;;;11.70;98.50;;;;;;5054371;28;20183;-72
2023/04/25 00:54:45;;;;;;;0.52;0.52;;;11.60;98.50;;;;;;5059505;28;20172;-72
2023/04/25 00:57:11;;;;;;;0.60;0.60;;;11.50;98.50;;;;;;5059056;28;20179;-72
2023/04/25 00:59:38;;;;;;;0.70;0.70;;;11.60;98.50;;;;;;5055974;28;20184;-72
2023/04/25 01:02:04;;;;;;;0.50;0.50;;;11.70;98.50;;;;;;5054563;28;20180;-72
2023/04/25 01:04:30;;;;;;;0.43;0.43;;;11.70;98.50;;;;;;5054201;28;20189;-72
2023/04/25 01:06:56;;;;;;;0.70;0.57;;;11.70;98.50;;;;;;5051102;28;20295;-71
2023/04/25 01:09:23;;;;;;;0.85;0.77;;;11.80;98.50;;;;;;5056535;28;20624;-71
2023/04/25 01:11:49;;;;;;;0.73;0.73;;;11.80;98.50;;;;;;5057097;28;20175;-71
2023/04/25 01:14:15;;;;;;;0.60;0.60;;;11.80;98.50;;;;;;5052301;28;20188;-71
2023/04/25 01:16:42;;;;;;;0.60;0.50;;;11.80;98.50;;;;;;5058565;28;20191;-72
2023/04/25 01:19:13;;;;;;;0.47;0.47;;;11.80;98.50;;;;;;5051185;28;20178;-72
2023/04/25 01:21:39;;;;;;;0.50;0.50;;;11.80;98.00;;;;;;5053129;28;20172;-72
2023/04/25 01:24:05;;;;;;;0.50;0.50;;;11.70;98.10;;;;;;5052977;28;20680;-72
2023/04/25 01:26:32;;;;;;;0.68;0.68;;;11.70;98.50;;;;;;5053045;28;20212;-71
2023/04/25 01:28:58;;;;;;;0.50;0.50;;;11.70;98.50;;;;;;5054340;28;20179;-72
2023/04/25 01:31:25;;;;;;;0.50;0.50;;;11.70;98.50;;;;;;5053951;28;20257;-72
2023/04/25 01:33:51;;;;;;;0.50;0.50;;;11.60;98.50;;;;;;5053597;28;20254;-71
2023/04/25 01:36:18;;;;;;;0.50;0.50;;;11.60;98.40;;;;;;5054308;28;20206;-71
2023/04/25 01:38:44;;;;;;;0.60;0.60;;;11.50;98.50;;;;;;5054786;28;20195;-71
2023/04/25 01:41:10;;;;;;;0.47;0.47;;;11.50;98.50;;;;;;5054336;28;20184;-71
2023/04/25 01:43:35;;;;;;;0.40;0.40;;;11.40;98.50;;;;;;5051813;28;20187;-71
2023/04/25 01:46:01;;;;;;;0.40;0.40;;;11.30;98.50;;;;;;5051987;28;20719;-71
2023/04/25 01:48:27;;;;;;;0.40;0.40;;;11.20;98.50;;;;;;5053199;28;20179;-71
2023/04/25 01:50:52;;;;;;;0.82;0.82;;;11.20;98.50;;;;;;5052669;28;20569;-72
2023/04/25 01:53:18;;;;;;;0.63;0.63;;;11.10;98.50;;;;;;5049168;28;20674;-71
2023/04/25 01:55:44;;;;;;;0.55;0.55;;;11.10;98.50;;;;;;5054491;28;20254;-71
2023/04/25 01:58:12;;;;;;;0.55;0.55;;;11.00;98.50;;;;;;5053665;28;20191;-71
2023/04/25 02:00:38;;;;;;;0.45;0.45;;;11.00;98.50;;;;;;5056250;28;20651;-71
2023/04/25 02:03:04;;;;;;;0.65;0.65;;;10.90;98.50;;;;;;5056630;28;20272;-72
2023/04/25 02:05:40;;;;;;;0.45;0.45;;;10.70;98.50;;;;;;5052592;28;20778;-71
2023/04/25 02:08:09;;;;;;;0.70;0.70;;;10.60;98.50;;;;;;5045688;28;20240;-70
2023/04/25 02:10:35;;;;;;;0.35;0.35;;;10.50;98.50;;;;;;5052981;28;20349;-71
2023/04/25 02:13:01;;;;;;;0.50;0.50;;;10.50;98.50;;;;;;5049944;28;20317;-71
2023/04/25 02:15:27;;;;;;;0.40;0.40;;;10.60;98.50;;;;;;5061015;28;20279;-72
2023/04/25 02:17:53;;;;;;;0.45;0.45;;;10.60;98.50;;;;;;5049104;28;20544;-71
2023/04/25 02:20:21;;;;;;;0.45;0.45;;;10.60;98.50;;;;;;5050487;28;20177;-72
2023/04/25 02:22:47;;;;;;;0.65;0.60;;;10.70;98.50;;;;;;5053430;28;20195;-72
2023/04/25 02:25:13;;;;;;;0.60;0.60;;;10.70;98.50;;;;;;5053091;28;20172;-72
2023/04/25 02:27:39;;;;;;;0.35;0.35;;;10.70;98.50;;;;;;5052630;28;20263;-72
2023/04/25 02:30:06;;;;;;;0.65;0.65;;;10.70;98.50;;;;;;5054592;28;20254;-71
2023/04/25 02:32:34;;;;;;;0.45;0.45;;;10.70;98.50;;;;;;5055767;28;20267;-71
2023/04/25 02:35:03;;;;;;;0.43;0.43;;;10.60;98.50;;;;;;5053891;28;20179;-72
2023/04/25 02:37:30;;;;;;;0.40;0.40;;;10.60;98.50;;;;;;5048226;28;20635;-72
2023/04/25 02:39:55;;;;;;;0.50;0.50;;;10.60;98.50;;;;;;5055084;28;20188;-72
2023/04/25 02:42:21;;;;;;;0.52;0.52;;;10.50;98.50;;;;;;5054610;28;20657;-72
2023/04/25 02:44:47;;;;;;;0.50;0.50;;;10.60;98.50;;;;;;5051407;28;20738;-71
2023/04/25 02:47:12;;;;;;;0.43;0.43;;;10.50;98.50;;;;;;5050506;28;20693;-72
2023/04/25 02:49:38;;;;;;;0.43;0.43;;;10.50;98.50;;;;;;5049696;28;20576;-72
2023/04/25 02:52:04;;;;;;;0.60;0.60;;;10.40;98.50;;;;;;5052980;28;20186;-72
2023/04/25 02:54:30;;;;;;;0.40;0.40;;;10.30;98.50;;;;;;5048879;28;20283;-72
2023/04/25 02:56:56;;;;;;;0.57;0.57;;;10.30;98.50;;;;;;5049292;28;20191;-72
2023/04/25 02:59:21;;;;;;;0.68;0.68;;;10.30;98.50;;;;;;5049420;28;20179;-72
2023/04/25 03:01:47;;;;;;;0.68;0.68;;;10.20;98.50;;;;;;5056585;28;20241;-72
2023/04/25 03:04:13;;;;;;;0.50;0.50;;;10.20;98.50;;;;;;5053812;28;20174;-72
2023/04/25 03:06:38;;;;;;;0.43;0.43;;;10.20;98.50;;;;;;5051327;28;20218;-72
2023/04/25 03:09:04;;;;;;;0.50;0.50;;;10.20;98.50;;;;;;5052610;28;20688;-72
2023/04/25 03:11:30;;;;;;;0.70;0.70;;;10.20;98.50;;;;;;5051171;28;20187;-72
2023/04/25 03:13:55;;;;;;;0.73;0.60;;;10.30;98.50;;;;;;5054657;28;20645;-72
2023/04/25 03:16:22;;;;;;;0.67;0.67;;;10.30;98.50;;;;;;5049764;28;20188;-71
2023/04/25 03:18:47;;;;;;;0.90;0.63;;;10.40;98.50;;;;;;5054375;28;20182;-71
2023/04/25 03:21:13;;;;;;;0.50;0.50;;;10.40;98.50;;;;;;5052396;28;20171;-72
2023/04/25 03:23:39;;;;;;;0.70;0.70;;;10.40;98.50;;;;;;5050928;28;20249;-72
2023/04/25 03:26:04;;;;;;;0.55;0.55;;;10.40;98.50;;;;;;5046395;28;21693;-72
2023/04/25 03:28:30;;;;;;;1.00;0.40;;;10.40;98.50;;;;;;5050216;28;20180;-71
2023/04/25 03:30:56;;;;;;;0.40;0.40;;;10.50;98.50;;;;;;5050953;28;20202;-71
2023/04/25 03:33:22;;;;;;;0.50;0.50;;;10.50;98.50;;;;;;5052791;28;20175;-71
2023/04/25 03:35:47;;;;;;;0.50;0.50;;;10.40;98.50;;;;;;5050548;28;20183;-70
2023/04/25 03:38:13;;;;;;;0.40;0.40;;;10.40;98.50;;;;;;5052777;28;20180;-71
2023/04/25 03:40:39;;;;;;;1.85;0.55;;;10.40;98.50;;;;;;5052800;28;20676;-71
2023/04/25 03:43:04;;;;;;;0.45;0.45;;;10.40;98.50;;;;;;5050588;28;20853;-71
2023/04/25 03:45:30;;;;;;;0.63;0.63;;;10.50;98.50;;;;;;5044649;28;20218;-71
2023/04/25 03:47:56;;;;;;;1.30;0.60;;;10.50;98.50;;;;;;5050484;28;20265;-71
2023/04/25 03:50:22;;;;;;;0.80;0.80;;;10.50;98.50;;;;;;5048470;28;20181;-70
2023/04/25 03:52:47;;;;;;;0.57;0.57;;;10.50;98.50;;;;;;5049907;28;20192;-71
2023/04/25 03:55:13;;;;;;;0.80;0.80;;;10.50;98.50;;;;;;5049490;28;20583;-71
2023/04/25 03:57:39;;;;;;;0.50;0.50;;;10.50;98.50;;;;;;5052448;28;20187;-71
2023/04/25 04:00:06;;;;;;;0.55;0.55;;;10.60;98.50;;;;;;5053629;28;20183;-71
2023/04/25 04:02:32;;;;;;;0.80;0.57;;;10.60;98.50;;;;;;5047930;28;20195;-71
2023/04/25 04:04:58;;;;;;;0.43;0.40;;;10.70;98.50;;;;;;5047901;28;20192;-71
2023/04/25 04:07:24;;;;;;;0.60;0.60;;;10.70;98.50;;;;;;5058037;28;20205;-70
2023/04/25 04:09:49;;;;;;;0.53;0.53;;;10.80;98.50;;;;;;5055978;28;20191;-71
2023/04/25 04:12:15;;;;;;;0.63;0.63;;;10.90;98.50;;;;;;5056225;28;20183;-71
2023/04/25 04:14:41;;;;;;;1.17;1.17;;;11.00;98.50;;;;;;5051465;28;20229;-70
2023/04/25 04:17:06;;;;;;;1.10;1.10;;;11.00;98.50;;;;;;5050398;28;20183;-71
2023/04/25 04:19:32;;;;;;;0.98;0.98;;;11.10;98.50;;;;;;5054893;28;20243;-74
2023/04/25 04:21:58;;;;;;;0.80;0.80;;;11.10;98.50;;;;;;5056059;28;20653;-71
2023/04/25 04:24:23;;;;;;;1.00;1.00;;;11.10;98.50;;;;;;5054727;28;20698;-72
2023/04/25 04:26:50;;;;;;;0.95;0.95;;;11.20;98.50;;;;;;5051264;28;20223;-71
2023/04/25 04:29:20;;;;;;;0.85;0.85;;;11.20;98.50;;;;;;5055182;28;20833;-72
2023/04/25 04:31:52;;;;;;;0.60;0.60;;;11.20;98.50;;;;;;5062869;28;20270;-72
2023/04/25 04:34:18;;;;;;;0.80;0.80;;;11.30;98.50;;;;;;5054350;28;20183;-71
2023/04/25 04:36:47;;;;;;;1.08;1.08;;;11.30;98.50;;;;;;5052935;28;20186;-72
2023/04/25 04:39:13;;;;;;;0.57;0.57;;;11.30;98.50;;;;;;5057749;28;20187;-72
2023/04/25 04:41:39;;;;;;;0.90;0.90;;;11.30;98.50;;;;;;5050625;28;20184;-71
2023/04/25 04:44:06;;;;;;;0.75;0.75;;;11.40;98.50;;;;;;5052475;28;20233;-70
2023/04/25 04:46:37;;;;;;;1.08;1.08;;;11.40;98.50;;;;;;5049907;28;20217;-70
2023/04/25 04:49:04;;;;;;;0.93;0.93;;;11.40;98.50;;;;;;5055518;28;20676;-71
2023/04/25 04:51:31;;;;;;;0.88;0.88;;;11.40;98.50;;;;;;5056943;28;20206;-70
2023/04/25 04:53:58;;;;;;;1.27;1.27;;;11.50;98.50;;;;;;5058776;28;20236;-71
2023/04/25 04:56:25;;;;;;;1.33;1.23;;;11.60;98.50;;;;;;5054937;28;20178;-70
2023/04/25 04:58:52;;;;;;;0.88;0.88;;;11.60;98.50;;;;;;5056427;28;20237;-70
2023/04/25 05:01:18;;;;;;;1.20;1.10;;;11.60;98.50;;;;;;5057282;28;20198;-70
2023/04/25 05:03:43;;;;;;;0.95;0.95;;;11.60;98.50;;;;;;5055256;28;20184;-70
2023/04/25 05:06:09;;;;;;;1.05;1.05;;;11.60;98.50;;;;;;5056041;28;20207;-70
2023/04/25 05:08:36;;;;;;;0.95;0.95;;;11.70;98.50;;;;;;5055589;28;20192;-71
2023/04/25 05:11:01;;;;;;;1.13;1.13;;;11.70;98.50;;;;;;5052789;28;20179;-72
2023/04/25 05:13:27;;;;;;;1.33;1.30;;;11.70;98.20;;;;;;5059517;28;20180;-71
2023/04/25 05:15:53;;;;;;;1.88;1.15;;;11.70;98.40;;;;;;5056627;28;20254;-71
2023/04/25 05:18:18;;;;;;;1.27;1.27;;;11.70;98.50;;;;;;5054891;28;20185;-71
2023/04/25 05:20:44;;;;;;;1.30;1.05;;;11.80;98.50;;;;;;5053690;28;20202;-70
2023/04/25 05:23:10;;;;;;;1.38;1.30;;;11.80;98.30;;;;;;5053412;28;20258;-71
2023/04/25 05:25:35;;;;;;;1.50;1.40;;;11.80;97.90;;;;;;5054422;28;20211;-72
2023/04/25 05:28:01;;;;;;;1.48;1.35;;;11.80;98.40;;;;;;5058234;28;20776;-71
2023/04/25 05:30:27;;;;;;;1.73;1.63;;;11.80;98.50;;;;;;5059724;28;20271;-70
2023/04/25 05:32:52;;;;;;;1.50;1.40;;;11.80;98.50;;;;;;5051649;28;20194;-71
2023/04/25 05:35:18;;;;;;;3.70;1.33;;;11.90;98.50;;;;;;5057207;28;20237;-71
2023/04/25 05:37:44;;;;;;;1.45;1.45;;;11.90;98.50;;;;;;5061873;28;20182;-70
2023/04/25 05:40:10;;;;;;;1.63;1.58;;;12.00;98.50;;;;;;5060680;28;20182;-70
2023/04/25 05:42:35;;;;;;;1.50;1.50;;;12.10;98.50;;;;;;5052054;28;20184;-70
2023/04/25 05:45:02;;;;;;;2.00;1.90;;;12.10;98.50;;;;;;5054439;28;20569;-71
2023/04/25 05:47:28;;;;;;;2.15;2.05;;;12.20;98.50;;;;;;5054865;28;20792;-70
2023/04/25 05:49:53;;;;;;;2.13;2.03;;;12.30;98.20;;;;;;5056775;28;20179;-71
2023/04/25 05:52:19;;;;;;;1.92;1.83;;;12.30;98.00;;;;;;5046562;28;20199;-70
2023/04/25 05:54:45;;;;;;;2.08;1.92;;;12.30;97.50;;;;;;5057104;28;20202;-71
2023/04/25 05:57:24;;;;;;;1.80;1.73;;;12.40;97.60;;;;;;5056791;28;20184;-70
2023/04/25 05:59:51;;;;;;;1.38;1.35;;;12.40;97.40;;;;;;5055260;28;20183;-70
2023/04/25 06:02:18;;;;;;;1.48;1.38;;;12.50;97.40;;;;;;5055662;28;20171;-71
2023/04/25 06:04:43;;;;;;;1.73;1.70;;;12.50;97.30;;;;;;5050702;28;20207;-70
2023/04/25 06:07:09;;;;;;;2.00;1.90;;;12.50;96.80;;;;;;5055459;28;20933;-70
2023/04/25 06:09:35;;;;;;;1.80;1.70;;;12.50;96.60;;;;;;5056993;28;20179;-70
2023/04/25 06:12:01;;;;;;;1.17;1.17;;;12.50;96.70;;;;;;5058199;28;20247;-70
2023/04/25 06:14:27;;;;;;;1.77;1.55;;;12.50;96.30;;;;;;5057034;28;20175;-71
2023/04/25 06:16:53;;;;;;;2.78;1.35;;;12.50;95.50;;;;;;5056307;28;20195;-70
2023/04/25 06:19:18;;;;;;;2.22;1.40;;;12.40;95.90;;;;;;5050713;28;20258;-71
2023/04/25 06:21:44;;;;;;;1.70;1.60;;;12.50;96.50;;;;;;5055265;28;20186;-70
2023/04/25 06:24:10;;;;;;;1.33;1.33;;;12.50;96.50;;;;;;5055036;28;20612;-71
2023/04/25 06:26:35;;;;;;;1.45;1.33;;;12.50;96.60;;;;;;5049822;28;20215;-72
2023/04/25 06:29:01;;;;;;;1.23;1.23;;;12.60;96.50;;;;;;5049806;28;20229;-71
2023/04/25 06:31:28;;;;;;;1.27;1.17;;;12.60;96.00;;;;;;5053909;28;20172;-71
2023/04/25 06:33:54;;;;;;;1.40;1.38;;;12.60;95.90;;;;;;5049472;28;20178;-71
2023/04/25 06:36:24;;;;;;;1.70;1.50;;;12.70;95.90;;;;;;5052096;28;20581;-70
2023/04/25 06:38:51;;;;;;;1.23;1.23;;;12.80;95.90;;;;;;5050687;28;20179;-70
2023/04/25 06:41:17;;;;;;;0.93;0.93;;;12.90;95.90;;;;;;5054877;28;20299;-70
2023/04/25 06:43:42;;;;;;;1.05;1.05;;;13.10;95.70;;;;;;5051098;28;20263;-71
2023/04/25 06:46:08;;;;;;;1.30;1.02;;;13.20;95.40;;;;;;5058427;28;20340;-71
2023/04/25 06:48:34;;;;;;;3.90;1.60;;;13.40;93.90;;;;;;5052406;28;20183;-72
2023/04/25 06:50:59;;;;;;;0.88;0.88;;;13.50;93.40;;;;;;5054556;28;20186;-70
2023/04/25 06:53:25;;;;;;;1.45;0.88;;;13.60;92.10;;;;;;5051539;28;20198;-72
2023/04/25 06:55:51;;;;;;;0.80;0.80;;;13.60;91.30;;;;;;5044993;28;20190;-71
2023/04/25 06:58:17;;;;;;;2.13;1.08;;;13.60;90.60;;;;;;5047529;28;20208;-70
2023/04/25 07:00:43;;;;;;;1.23;1.23;;;13.70;91.10;;;;;;5050481;28;20276;-71
2023/04/25 07:03:09;;;;;;;1.05;1.05;;;13.80;90.60;;;;;;5051823;28;20263;-70
2023/04/25 07:05:35;;;;;;;1.23;1.02;;;13.80;90.30;;;;;;5052132;28;20207;-72
2023/04/25 07:08:01;;;;;;;1.00;1.00;;;13.90;89.90;;;;;;5050879;28;20566;-72
2023/04/25 07:10:27;;;;;;;1.13;1.13;;;13.90;89.70;;;;;;5054437;28;20191;-72
2023/04/25 07:12:52;;;;;;;1.00;1.00;;;13.90;90.20;;;;;;5050532;28;20559;-72
2023/04/25 07:15:18;;;;;;;1.05;1.05;;;14.00;90.60;;;;;;5048665;28;20175;-72
2023/04/25 07:17:44;;;;;;;1.08;1.08;;;14.10;90.70;;;;;;5052380;28;20182;-71
2023/04/25 07:20:10;;;;;;;0.90;0.90;;;14.20;90.90;;;;;;5052185;28;20180;-73
2023/04/25 07:22:35;;;;;;;0.60;0.60;;;14.30;89.50;;;;;;5052482;28;20187;-72
2023/04/25 07:25:01;;;;;;;1.17;0.93;;;14.30;89.10;;;;;;5047685;28;20187;-71
2023/04/25 07:27:27;;;;;;;4.47;1.67;;;14.30;88.10;;;;;;5056830;28;20220;-72
2023/04/25 07:29:53;;;;;;;1.20;1.20;;;14.40;88.40;;;;;;5053379;28;20171;-72
2023/04/25 07:32:19;;;;;;;2.17;0.90;;;14.40;89.20;;;;;;5055616;28;20188;-71
2023/04/25 07:34:45;;;;;;;0.95;0.95;;;14.60;89.50;;;;;;5050399;28;20183;-71
2023/04/25 07:37:10;;;;;;;1.33;1.15;;;14.70;89.20;;;;;;5054314;28;20194;-71
2023/04/25 07:39:37;;;;;;;1.67;1.23;;;14.80;89.00;;;;;;5051506;28;20217;-71
2023/04/25 07:42:03;;;;;;;1.95;1.10;;;15.00;88.70;;;;;;5038634;28;20252;-71
2023/04/25 07:44:30;;;;;;;1.67;1.05;;;15.10;87.20;;;;;;5052036;28;20619;-73
2023/04/25 07:46:56;;;;;;;2.10;1.90;;;15.20;87.50;;;;;;5047344;28;20249;-72
2023/04/25 07:49:22;;;;;;;1.40;1.40;;;15.40;88.00;;;;;;5054496;28;20664;-72
2023/04/25 07:51:47;;;;;;;1.35;1.33;;;15.50;86.40;;;;;;5056822;28;20286;-71
2023/04/25 07:54:15;;;;;;;1.63;1.52;;;15.50;86.40;;;;;;5055450;28;20191;-72
2023/04/25 07:56:41;;;;;;;1.23;1.23;;;15.50;85.90;;;;;;5052281;28;20563;-72
2023/04/25 07:59:06;;;;;;;3.15;1.23;;;15.60;86.20;;;;;;5048896;28;20189;-72
2023/04/25 08:01:34;;;;;;;1.63;1.60;;;15.70;86.20;;;;;;5045737;28;20279;-72
2023/04/25 08:03:59;;;;;;;1.25;1.13;;;15.80;86.40;;;;;;5051059;28;20176;-72
2023/04/25 08:06:25;;;;;;;2.35;1.88;;;15.90;85.90;;;;;;5050828;28;20696;-71
2023/04/25 08:08:51;;;;;;;2.97;1.75;;;16.00;84.80;;;;;;5051740;28;20184;-72
2023/04/25 08:11:17;;;;;;;1.83;1.63;;;16.10;85.00;;;;;;5052038;28;20298;-72
2023/04/25 08:13:42;;;;;;;1.50;1.40;;;16.30;84.60;;;;;;5052678;28;20184;-72
2023/04/25 08:16:08;;;;;;;1.92;1.40;;;16.50;83.10;;;;;;5053309;28;20187;-72
2023/04/25 08:18:33;;;;;;;1.52;1.27;;;16.60;82.20;;;;;;5057821;28;20190;-71
2023/04/25 08:20:59;;;;;;;1.15;1.13;;;16.60;80.80;;;;;;5052217;28;20199;-72
2023/04/25 08:23:25;;;;;;;3.63;1.52;;;16.60;80.30;;;;;;5055450;28;20183;-71
2023/04/25 08:25:51;;;;;;;1.23;1.20;;;16.70;81.40;;;;;;5053055;28;20207;-72
2023/04/25 08:28:16;;;;;;;1.00;1.00;;;16.80;79.30;;;;;;5054790;28;20189;-72
2023/04/25 08:30:42;;;;;;;2.17;1.10;;;16.90;77.70;;;;;;5053223;28;20179;-72
2023/04/25 08:33:08;;;;;;;1.38;1.27;;;17.00;78.40;;;;;;5053855;28;20190;-72
2023/04/25 08:35:33;;;;;;;1.48;1.38;;;17.00;77.70;;;;;;5054697;28;20183;-75
2023/04/25 08:38:00;;;;;;;2.08;1.30;;;16.90;77.40;;;;;;5057675;28;20179;-72
2023/04/25 08:40:29;;;;;;;3.35;1.42;;;16.90;77.80;;;;;;5056259;28;20691;-72
2023/04/25 08:42:57;;;;;;;1.88;1.60;;;17.00;79.30;;;;;;5051201;28;20201;-72
2023/04/25 08:45:24;;;;;;;2.08;1.25;;;16.80;80.20;;;;;;5048188;28;20558;-72
2023/04/25 08:47:52;;;;;;;1.48;1.40;;;16.60;80.30;;;;;;5051332;28;20578;-72
2023/04/25 08:50:21;;;;;;;1.65;1.55;;;16.50;81.00;;;;;;5055070;28;20198;-72
2023/04/25 08:52:47;;;;;;;1.42;1.40;;;16.40;81.00;;;;;;5055901;28;20200;-72
2023/04/25 08:55:14;;;;;;;1.15;1.13;;;16.40;82.60;;;;;;5051413;28;20176;-72
2023/04/25 08:57:45;;;;;;;0.85;0.85;;;16.50;83.10;;;;;;5059624;28;20176;-72
2023/04/25 09:00:15;;;;;;;1.52;1.27;;;16.70;81.70;;;;;;5057478;28;20318;-72
2023/04/25 09:02:43;;;;;;;1.35;1.35;;;16.90;81.00;;;;;;5060280;28;20228;-72
2023/04/25 09:05:12;;;;;;;1.45;1.42;;;17.20;81.90;;;;;;5056216;28;20183;-73
2023/04/25 09:07:37;;;;;;;1.90;1.80;;;17.50;80.90;;;;;;5057402;28;20175;-72
2023/04/25 09:10:04;;;;;;;1.17;1.17;;;17.80;80.40;;;;;;5055457;28;20183;-71
2023/04/25 09:12:30;;;;;;;1.60;1.50;;;18.00;78.20;;;;;;5056546;28;20172;-72
2023/04/25 09:15:11;;;;;;;1.08;1.08;;;18.20;78.10;;;;;;5058062;28;20186;-71
2023/04/25 09:17:40;;;;;;;1.42;1.20;;;18.50;77.20;;;;;;5053495;28;20172;-71
2023/04/25 09:20:14;;;;;;;1.75;1.27;;;18.80;77.20;;;;;;5057247;28;20209;-71
2023/04/25 09:22:40;;;;;;;1.38;1.27;;;19.20;75.20;;;;;;5058484;28;20201;-69
2023/04/25 09:25:11;;;;;;;2.92;1.05;;;19.50;74.70;;;;;;5058126;28;20569;-71
2023/04/25 09:27:52;;;;;;;1.58;1.58;;;19.90;74.60;;;;;;5056442;28;20472;-71
2023/04/25 09:30:18;;;;;;;1.40;1.40;;;20.00;72.80;;;;;;5046477;28;20241;-72
2023/04/25 09:32:45;;;;;;;1.60;1.50;;;20.00;72.70;;;;;;5054160;28;20183;-71
2023/04/25 09:35:11;;;;;;;1.35;1.30;;;19.90;73.10;;;;;;5056122;28;20184;-71
2023/04/25 09:37:37;;;;;;;1.25;1.25;;;19.70;73.50;;;;;;5052029;28;20699;-73
2023/04/25 09:40:06;;;;;;;2.22;1.30;;;19.40;72.00;;;;;;5051316;28;20187;-71
2023/04/25 09:42:34;;;;;;;1.40;1.40;;;19.40;72.20;;;;;;5054142;28;20175;-71
2023/04/25 09:45:01;;;;;;;1.38;1.27;;;19.50;72.30;;;;;;5055049;28;20263;-71
2023/04/25 09:47:28;;;;;;;1.20;1.20;;;20.00;72.90;;;;;;5055216;28;20735;-71
2023/04/25 09:49:55;;;;;;;1.67;1.63;;;20.30;69.80;;;;;;5056048;28;20228;-71
2023/04/25 09:52:24;;;;;;;0.85;0.40;;;20.20;67.70;;;;;;5057215;28;20200;-73
2023/04/25 09:54:51;;;;;;;0.63;0.63;;;20.00;65.20;;;;;;5051664;28;20191;-73
2023/04/25 09:57:18;;;;;;;0.60;0.60;;;19.70;64.60;;;;;;5052742;28;20176;-73
2023/04/25 09:59:45;;;;;;;0.70;0.65;;;19.80;66.80;;;;;;5053913;28;20674;-72
2023/04/25 10:02:12;;;;;;;1.02;1.02;;;20.00;69.60;;;;;;5058697;28;20567;-72
2023/04/25 10:04:38;;;;;;;2.08;1.10;;;20.20;69.90;;;;;;5053373;28;20195;-72
2023/04/25 10:07:08;;;;;;;3.13;0.95;;;20.40;70.60;;;;;;5059787;28;20209;-71
2023/04/25 10:09:37;;;;;;;1.10;1.10;;;20.50;70.80;;;;;;5058065;28;20182;-72
2023/04/25 10:12:03;;;;;;;1.08;1.08;;;20.40;71.20;;;;;;5050245;28;20190;-72
2023/04/25 10:14:32;;;;;;;2.35;1.30;;;20.30;71.50;;;;;;5051117;28;20190;-72
2023/04/25 10:16:59;;;;;;;0.60;0.60;;;20.10;70.60;;;;;;5057739;28;20793;-72
2023/04/25 10:19:26;;;;;;;0.30;0.30;;;19.30;68.00;;;;;;5085732;28;20207;-73
2023/04/25 10:22:04;;;;;;;0.30;0.30;;;17.60;76.40;;;;;;5053759;28;20176;-73
2023/04/25 10:24:30;;;;;;;0.40;0.40;;;16.30;78.60;;;;;;5057085;28;20183;-73
2023/04/25 10:26:57;;;;;;;0.20;0.20;;;15.40;81.00;;;;;;5057848;28;20215;-72
2023/04/25 10:29:26;;;;;;;0.20;0.20;;;15.40;81.50;;;;;;5060533;28;20545;-72
2023/04/25 10:31:52;;;;;;;1.08;0.30;;;15.80;84.90;;;;;;5051314;28;20187;-72
2023/04/25 10:34:18;;;;;;;0.20;0.20;;;16.60;79.70;;;;;;5055696;28;20539;-72
2023/04/25 10:36:50;;;;;;;0.70;0.70;;;17.30;80.70;;;;;;5053653;28;20254;-73
2023/04/25 10:39:26;;;;;;;0.20;0.20;;;18.00;72.30;;;;;;5054556;28;20190;-72
2023/04/25 10:41:55;;;;;;;0.20;0.20;;;18.60;74.80;;;;;;5059093;28;20190;-72
2023/04/25 10:44:21;;;;;;;0.20;0.20;;;18.50;71.70;;;;;;5054781;28;20186;-72
2023/04/25 10:46:47;;;;;;;0.28;0.28;;;18.80;74.90;;;;;;5048965;28;20219;-72
2023/04/25 10:49:28;;;;;;;0.75;0.30;;;19.20;72.80;;;;;;5056897;28;20179;-72
2023/04/25 10:52:11;;;;;;;0.25;0.25;;;19.70;74.10;;;;;;5053988;28;20322;-73
2023/04/25 10:54:53;;;;;;;0.63;0.13;;;20.60;72.30;;;;;;5059312;28;20194;-73
2023/04/25 10:57:40;;;;;;;0.20;0.20;;;20.60;67.60;;;;;;5055594;28;20588;-72
2023/04/25 11:00:15;;;;;;;0.80;0.30;;;20.60;66.80;;;;;;5051631;28;20190;-72
2023/04/25 11:02:47;;;;;;;0.20;0.20;;;20.50;68.40;;;;;;5056153;28;20171;-74
2023/04/25 11:05:32;;;;;;;0.20;0.20;;;20.30;67.20;;;;;;5059000;28;20185;-74
2023/04/25 11:07:59;;;;;;;0.85;0.20;;;21.00;64.40;;;;;;5053878;28;20170;-72
2023/04/25 11:10:27;;;;;;;0.20;0.20;;;21.70;62.30;;;;;;5055428;28;20181;-71
2023/04/25 11:12:53;;;;;;;0.20;0.20;;;22.10;59.20;;;;;;5050224;28;20240;-72
2023/04/25 11:15:18;;;;;;;1.35;0.20;;;21.80;60.50;;;;;;5053451;28;20641;-72
2023/04/25 11:17:46;;;;;;;0.43;0.20;;;21.20;60.40;;;;;;5058534;28;20179;-71
2023/04/25 11:20:15;;;;;;;0.17;0.17;;;20.50;61.50;;;;;;5053838;28;20180;-72
2023/04/25 11:22:41;;;;;;;0.20;0.20;;;19.80;62.20;;;;;;5055055;28;20172;-70
2023/04/25 11:25:09;;;;;;;0.75;0.20;;;19.50;62.70;;;;;;5052141;28;20190;-71
2023/04/25 11:27:38;;;;;;;0.30;0.30;;;19.30;65.20;;;;;;5051362;28;20218;-71
2023/04/25 11:30:11;;;;;;;0.17;0.17;;;18.80;65.60;;;;;;5052499;28;20634;-72
2023/04/25 11:32:38;;;;;;;0.38;0.38;;;18.30;66.20;;;;;;5055137;28;20395;-71
2023/04/25 11:35:05;;;;;;;0.40;0.40;;;17.90;67.20;;;;;;5056892;28;20274;-72
2023/04/25 11:37:32;;;;;;;0.20;0.20;;;17.90;69.00;;;;;;5054623;28;20219;-71
2023/04/25 11:39:57;;;;;;;0.30;0.30;;;17.70;69.00;;;;;;5055477;28;20179;-71
2023/04/25 11:42:23;;;;;;;0.30;0.30;;;17.10;68.70;;;;;;5057948;28;20650;-71
2023/04/25 11:44:49;;;;;;;0.98;0.22;;;16.60;70.20;;;;;;5049769;28;20187;-71
2023/04/25 11:47:15;;;;;;;0.40;0.40;;;16.40;70.10;;;;;;5048537;28;20210;-70
2023/04/25 11:49:41;;;;;;;0.52;0.47;;;15.50;71.10;;;;;;5052347;28;20178;-72
2023/04/25 11:52:07;;;;;;;0.30;0.30;;;15.00;75.10;;;;;;5058575;28;20806;-72
2023/04/25 11:54:35;;;;;;;0.20;0.20;;;14.80;78.20;;;;;;5051765;28;20195;-72
2023/04/25 11:57:03;;;;;;;0.20;0.20;;;14.80;78.30;;;;;;5049190;28;20206;-72
2023/04/25 11:59:29;;;;;;;0.20;0.20;;;14.90;79.60;;;;;;5052723;28;20656;-72
2023/04/25 12:01:57;;;;;;;0.20;0.20;;;15.40;79.20;;;;;;5049412;28;20183;-72
2023/04/25 12:04:24;;;;;;;0.40;0.40;;;16.10;75.70;;;;;;5053369;28;20187;-72
2023/04/25 12:06:52;;;;;;;0.10;0.10;;;16.80;75.10;;;;;;5050368;28;20207;-71
2023/04/25 12:09:28;;;;;;;0.20;0.20;;;17.90;72.60;;;;;;5057546;28;20192;-72
2023/04/25 12:11:55;;;;;;;0.20;0.20;;;18.60;70.50;;;;;;5057621;28;20213;-71
2023/04/25 12:14:26;;;;;;;0.32;0.32;;;18.60;68.60;;;;;;5056469;28;20600;-71
2023/04/25 12:16:55;;;;;;;0.20;0.20;;;18.10;67.40;;;;;;5053722;28;20187;-71
2023/04/25 12:19:21;;;;;;;0.20;0.20;;;17.60;69.20;;;;;;5049720;28;20179;-71
2023/04/25 12:21:48;;;;;;;0.28;0.28;;;17.30;70.00;;;;;;5054901;28;20223;-71
2023/04/25 12:24:15;;;;;;;0.20;0.20;;;17.30;71.00;;;;;;5055465;28;20197;-72
2023/04/25 12:26:51;;;;;;;0.22;0.22;;;17.20;70.40;;;;;;5049108;28;20599;-70
2023/04/25 12:29:28;;;;;;;0.20;0.20;;;17.40;70.30;;;;;;5055400;28;20183;-74
2023/04/25 12:31:55;;;;;;;0.30;0.25;;;18.30;69.40;;;;;;5056307;28;20179;-71
2023/04/25 12:34:21;;;;;;;0.28;0.20;;;19.20;67.50;;;;;;5054625;28;20243;-72
2023/04/25 12:36:47;;;;;;;0.30;0.30;;;19.10;67.90;;;;;;5058175;28;20187;-71
2023/04/25 12:39:23;;;;;;;0.25;0.25;;;18.80;70.20;;;;;;5059263;28;20669;-71
2023/04/25 12:41:53;;;;;;;0.17;0.17;;;18.10;72.70;;;;;;5056652;28;20179;-71
2023/04/25 12:44:20;;;;;;;0.28;0.28;;;17.70;75.10;;;;;;5059669;28;20186;-72
2023/04/25 12:47:05;;;;;;;0.28;0.28;;;17.30;76.50;;;;;;5053950;28;20207;-72